Time;durP1;ratioP1;P1;durP2;ratioP2;P2;SDS_P1;SDS_P2;PMS_P1;PMS_P2;Temp;Humidity;BMP_temperature;BMP_pressure;BME280_temperature;BME280_humidity;BME280_pressure;Samples;Min_cycle;Max_cycle;Signal;HPM_P1;HPM_P2
2022/07/25 00:00:01;;;;;;;8.47;7.67;;;23.40;99.90;;;;;;5031923;28;20201;-34
2022/07/25 00:02:26;;;;;;;8.40;7.60;;;23.30;99.90;;;;;;5032048;28;20230;-34
2022/07/25 00:04:52;;;;;;;8.53;7.83;;;23.30;99.90;;;;;;5031967;28;20214;-34
2022/07/25 00:07:18;;;;;;;8.57;7.67;;;23.30;99.90;;;;;;5031511;28;20214;-34
2022/07/25 00:09:43;;;;;;;8.30;7.60;;;23.30;99.90;;;;;;5031770;28;20794;-34
2022/07/25 00:12:09;;;;;;;9.27;8.47;;;23.30;99.90;;;;;;5031912;28;20206;-34
2022/07/25 00:14:35;;;;;;;8.93;8.13;;;23.30;99.90;;;;;;5031574;28;20196;-34
2022/07/25 00:17:01;;;;;;;8.37;7.67;;;23.30;99.90;;;;;;5031398;28;20243;-34
2022/07/25 00:19:26;;;;;;;9.00;8.20;;;23.30;99.90;;;;;;5036851;28;20697;-34
2022/07/25 00:21:52;;;;;;;8.13;7.33;;;23.40;99.90;;;;;;5058045;28;20661;-34
2022/07/25 00:24:18;;;;;;;8.10;7.40;;;23.40;99.90;;;;;;5031751;28;20189;-34
2022/07/25 00:26:44;;;;;;;9.47;8.67;;;23.40;99.90;;;;;;5030873;28;20206;-34
2022/07/25 00:29:09;;;;;;;8.43;7.73;;;23.30;99.90;;;;;;5031348;28;20190;-34
2022/07/25 00:31:35;;;;;;;8.47;7.77;;;23.40;99.90;;;;;;5030231;28;21021;-34
2022/07/25 00:34:01;;;;;;;8.70;7.90;;;23.30;99.90;;;;;;5030314;28;20183;-34
2022/07/25 00:36:27;;;;;;;10.73;8.23;;;23.30;99.90;;;;;;5031458;28;20198;-34
2022/07/25 00:38:53;;;;;;;8.83;8.03;;;23.20;99.90;;;;;;5031026;28;20433;-35
2022/07/25 00:41:19;;;;;;;8.00;7.40;;;23.10;99.90;;;;;;5031289;28;20681;-34
2022/07/25 00:43:45;;;;;;;9.07;8.27;;;23.10;99.90;;;;;;5031261;28;20661;-34
2022/07/25 00:46:12;;;;;;;8.17;7.37;;;23.10;99.90;;;;;;5030054;28;20228;-34
2022/07/25 00:48:39;;;;;;;7.80;7.10;;;23.00;99.90;;;;;;5030287;28;20477;-34
2022/07/25 00:51:05;;;;;;;7.90;7.20;;;23.00;99.90;;;;;;5031040;28;20433;-34
2022/07/25 00:53:31;;;;;;;8.30;7.60;;;22.90;99.90;;;;;;5031260;28;20992;-34
2022/07/25 00:55:57;;;;;;;9.23;8.43;;;22.90;99.90;;;;;;5030152;28;20483;-34
2022/07/25 00:58:23;;;;;;;8.20;7.43;;;22.80;99.90;;;;;;5030255;28;20425;-34
2022/07/25 01:00:48;;;;;;;8.17;7.37;;;22.80;99.90;;;;;;5030986;28;20655;-34
2022/07/25 01:03:15;;;;;;;8.40;7.70;;;22.90;99.90;;;;;;5030851;28;20218;-34
2022/07/25 01:05:41;;;;;;;8.27;7.57;;;22.80;99.90;;;;;;5030909;28;20214;-34
2022/07/25 01:08:08;;;;;;;8.20;7.50;;;22.80;99.90;;;;;;5030096;28;20957;-34
2022/07/25 01:10:34;;;;;;;7.60;6.90;;;22.80;99.90;;;;;;5030707;28;20844;-34
2022/07/25 01:13:00;;;;;;;8.30;7.60;;;22.80;99.90;;;;;;5030555;28;20421;-34
2022/07/25 01:15:26;;;;;;;7.93;7.33;;;22.80;99.90;;;;;;5030680;28;20429;-34
2022/07/25 01:17:52;;;;;;;9.60;7.70;;;22.90;99.90;;;;;;5028775;28;20448;-34
2022/07/25 01:20:19;;;;;;;8.57;7.87;;;22.90;99.90;;;;;;5041860;28;20421;-34
2022/07/25 01:22:45;;;;;;;8.77;7.87;;;23.00;99.90;;;;;;5049894;28;20831;-34
2022/07/25 01:25:13;;;;;;;8.53;7.83;;;23.00;99.90;;;;;;5030474;28;20429;-33
2022/07/25 01:27:40;;;;;;;8.43;7.63;;;23.10;99.90;;;;;;5029831;28;20464;-34
2022/07/25 01:30:08;;;;;;;9.40;8.50;;;23.10;99.90;;;;;;5030446;28;20491;-34
2022/07/25 01:32:34;;;;;;;8.40;7.60;;;23.20;99.90;;;;;;5030445;28;20432;-34
2022/07/25 01:35:00;;;;;;;8.53;7.83;;;23.20;99.90;;;;;;5030362;28;20484;-34
2022/07/25 01:37:26;;;;;;;8.03;6.70;;;23.20;99.90;;;;;;5029782;28;20501;-34
2022/07/25 01:39:52;;;;;;;8.67;7.97;;;23.20;99.90;;;;;;5030228;28;20447;-34
2022/07/25 01:42:18;;;;;;;8.90;8.00;;;23.20;99.90;;;;;;5030247;28;20288;-34
2022/07/25 01:44:44;;;;;;;8.33;7.63;;;23.10;99.90;;;;;;5030073;28;20197;-34
2022/07/25 01:47:10;;;;;;;7.80;7.20;;;23.10;99.90;;;;;;5029688;28;20653;-34
2022/07/25 01:49:36;;;;;;;7.80;7.00;;;23.10;99.90;;;;;;5030167;28;20475;-34
2022/07/25 01:52:02;;;;;;;7.60;7.00;;;23.00;99.90;;;;;;5030313;28;20218;-34
2022/07/25 01:54:28;;;;;;;8.80;7.40;;;22.90;99.90;;;;;;5029820;28;20523;-34
2022/07/25 01:56:54;;;;;;;7.80;7.10;;;22.80;99.90;;;;;;5029747;28;20545;-34
2022/07/25 01:59:20;;;;;;;8.20;7.50;;;22.80;99.90;;;;;;5030011;28;20460;-34
2022/07/25 02:01:45;;;;;;;8.60;7.83;;;22.90;99.90;;;;;;5030139;28;20676;-34
2022/07/25 02:04:11;;;;;;;8.57;7.77;;;22.90;99.90;;;;;;5028648;28;20681;-34
2022/07/25 02:06:40;;;;;;;7.87;7.20;;;23.00;99.90;;;;;;5028047;28;20206;-34
2022/07/25 02:09:06;;;;;;;8.00;7.30;;;22.90;99.90;;;;;;5029661;28;20225;-34
2022/07/25 02:11:32;;;;;;;8.20;7.40;;;22.90;99.90;;;;;;5030033;28;20465;-34
2022/07/25 02:13:58;;;;;;;8.23;7.40;;;22.80;99.90;;;;;;5028592;28;20422;-34
2022/07/25 02:16:24;;;;;;;8.57;7.77;;;22.80;99.90;;;;;;5030072;28;20437;-34
2022/07/25 02:18:50;;;;;;;8.30;7.60;;;22.80;99.90;;;;;;5028968;28;20788;-34
2022/07/25 02:21:15;;;;;;;8.50;7.80;;;22.80;99.90;;;;;;5057097;28;20222;-34
2022/07/25 02:23:42;;;;;;;12.53;7.67;;;22.80;99.90;;;;;;5033399;28;20200;-34
2022/07/25 02:26:08;;;;;;;8.80;7.90;;;22.80;99.90;;;;;;5029996;28;20274;-34
2022/07/25 02:28:33;;;;;;;8.20;7.50;;;22.70;99.90;;;;;;5029073;28;20528;-34
2022/07/25 02:30:59;;;;;;;8.70;7.50;;;22.60;99.90;;;;;;5029770;28;20198;-34
2022/07/25 02:33:25;;;;;;;8.50;7.70;;;22.60;99.90;;;;;;5029833;28;20523;-34
2022/07/25 02:35:51;;;;;;;7.50;6.90;;;22.50;99.90;;;;;;5029635;28;20428;-34
2022/07/25 02:38:20;;;;;;;8.27;7.57;;;22.50;99.90;;;;;;5028877;28;20222;-34
2022/07/25 02:40:47;;;;;;;8.03;7.37;;;22.50;99.90;;;;;;5029626;28;20201;-34
2022/07/25 02:43:13;;;;;;;8.83;7.20;;;22.50;99.90;;;;;;5029535;28;20468;-34
2022/07/25 02:45:39;;;;;;;8.50;7.70;;;22.40;99.90;;;;;;5029586;28;20468;-34
2022/07/25 02:48:05;;;;;;;7.53;6.93;;;22.30;99.90;;;;;;5029073;28;20226;-34
2022/07/25 02:50:31;;;;;;;7.70;7.10;;;22.30;99.90;;;;;;5029596;28;20273;-34
2022/07/25 02:52:57;;;;;;;8.47;7.67;;;22.20;99.90;;;;;;5028205;28;20475;-34
2022/07/25 02:55:22;;;;;;;7.90;7.23;;;22.20;99.90;;;;;;5029642;28;20717;-34
2022/07/25 02:57:48;;;;;;;8.70;7.90;;;22.00;99.90;;;;;;5028956;28;20204;-34
2022/07/25 03:00:14;;;;;;;8.03;7.43;;;22.00;99.90;;;;;;5029381;28;20202;-34
2022/07/25 03:02:40;;;;;;;8.60;7.90;;;21.80;99.90;;;;;;5029371;28;20572;-34
2022/07/25 03:05:08;;;;;;;8.60;7.80;;;21.80;99.90;;;;;;5029230;28;20502;-34
2022/07/25 03:07:34;;;;;;;8.10;7.40;;;21.80;99.90;;;;;;5028451;28;20666;-34
2022/07/25 03:09:59;;;;;;;8.00;7.40;;;21.80;99.90;;;;;;5029364;28;20433;-34
2022/07/25 03:12:25;;;;;;;8.93;7.70;;;21.80;99.90;;;;;;5029230;28;20786;-34
2022/07/25 03:14:51;;;;;;;8.37;7.60;;;21.90;99.90;;;;;;5029496;28;20186;-34
2022/07/25 03:17:17;;;;;;;7.57;6.97;;;21.90;99.90;;;;;;5028611;28;20206;-34
2022/07/25 03:19:43;;;;;;;10.20;7.83;;;21.90;99.90;;;;;;5039589;28;20182;-34
2022/07/25 03:22:09;;;;;;;8.37;7.67;;;21.90;99.90;;;;;;5056557;28;20435;-34
2022/07/25 03:24:35;;;;;;;8.20;7.50;;;22.00;99.90;;;;;;5032831;28;20205;-34
2022/07/25 03:27:01;;;;;;;8.60;7.80;;;22.00;99.90;;;;;;5032194;28;20465;-34
2022/07/25 03:29:26;;;;;;;7.80;7.00;;;22.00;99.90;;;;;;5032858;28;20457;-34
2022/07/25 03:31:52;;;;;;;8.40;7.73;;;22.00;99.90;;;;;;5032572;28;20421;-34
2022/07/25 03:34:18;;;;;;;7.33;6.67;;;22.00;99.90;;;;;;5032624;28;20786;-34
2022/07/25 03:36:44;;;;;;;9.60;7.50;;;22.00;99.90;;;;;;5031896;28;20190;-35
2022/07/25 03:39:09;;;;;;;8.70;7.27;;;22.00;99.90;;;;;;5032789;28;20673;-35
2022/07/25 03:41:35;;;;;;;7.70;7.03;;;22.10;99.90;;;;;;5032510;28;20558;-34
2022/07/25 03:44:01;;;;;;;7.60;6.80;;;22.10;99.90;;;;;;5032651;28;20605;-34
2022/07/25 03:46:26;;;;;;;7.20;6.60;;;22.10;99.90;;;;;;5032487;28;20281;-34
2022/07/25 03:48:54;;;;;;;7.53;6.93;;;22.10;99.90;;;;;;5031832;28;20726;-34
2022/07/25 03:51:20;;;;;;;8.20;7.50;;;22.10;99.90;;;;;;5032090;28;20191;-34
2022/07/25 03:54:00;;;;;;;8.30;7.57;;;22.10;99.90;;;;;;5031240;28;20454;-34
2022/07/25 03:56:30;;;;;;;7.80;7.17;;;22.10;99.90;;;;;;5032374;28;20190;-34
2022/07/25 03:58:56;;;;;;;8.23;7.47;;;22.10;99.90;;;;;;5031845;28;20511;-34
2022/07/25 04:01:22;;;;;;;8.20;7.43;;;22.10;99.90;;;;;;5032268;28;20952;-34
2022/07/25 04:03:47;;;;;;;7.37;6.77;;;22.10;99.90;;;;;;5031821;28;20532;-34
2022/07/25 04:06:13;;;;;;;10.13;7.77;;;22.10;99.90;;;;;;5032078;28;20684;-34
2022/07/25 04:08:39;;;;;;;8.37;7.67;;;22.10;99.90;;;;;;5031297;28;20218;-34
2022/07/25 04:11:04;;;;;;;9.10;8.30;;;22.10;99.90;;;;;;5031931;28;20182;-34
2022/07/25 04:13:30;;;;;;;7.23;6.70;;;22.20;99.90;;;;;;5031752;28;20193;-34
2022/07/25 04:15:56;;;;;;;8.53;7.77;;;22.30;99.90;;;;;;5030830;28;20266;-34
2022/07/25 04:18:22;;;;;;;7.17;6.57;;;22.30;99.90;;;;;;5030107;28;20461;-34
2022/07/25 04:20:48;;;;;;;8.23;7.53;;;22.30;99.90;;;;;;5052728;28;20806;-34
2022/07/25 04:23:13;;;;;;;8.07;7.37;;;22.30;99.90;;;;;;5043040;28;20611;-34
2022/07/25 04:25:39;;;;;;;10.10;7.80;;;22.30;99.90;;;;;;5031745;28;20194;-34
2022/07/25 04:28:05;;;;;;;8.37;7.67;;;22.30;99.90;;;;;;5030848;28;20993;-34
2022/07/25 04:30:31;;;;;;;7.80;7.10;;;22.30;99.90;;;;;;5031520;28;20186;-34
2022/07/25 04:32:56;;;;;;;8.70;6.70;;;22.30;99.90;;;;;;5031465;28;20753;-34
2022/07/25 04:35:22;;;;;;;8.20;7.60;;;22.30;99.90;;;;;;5031501;28;20218;-34
2022/07/25 04:37:48;;;;;;;7.50;6.80;;;22.30;99.90;;;;;;5030871;28;20190;-34
2022/07/25 04:40:14;;;;;;;8.03;7.33;;;22.40;99.90;;;;;;5031476;28;20193;-34
2022/07/25 04:42:39;;;;;;;8.83;6.80;;;22.50;99.90;;;;;;5042554;28;20522;-33
2022/07/25 04:45:05;;;;;;;7.80;7.20;;;22.50;99.90;;;;;;5040539;28;20228;-34
2022/07/25 04:47:31;;;;;;;7.20;6.60;;;22.60;99.90;;;;;;5044582;28;20216;-33
2022/07/25 04:49:57;;;;;;;7.50;6.90;;;22.60;99.90;;;;;;5038197;28;20421;-34
2022/07/25 04:52:22;;;;;;;7.87;7.17;;;22.70;99.90;;;;;;5031016;28;20182;-34
2022/07/25 04:54:48;;;;;;;7.30;6.70;;;22.80;99.90;;;;;;5047838;28;20190;-34
2022/07/25 04:57:14;;;;;;;7.87;6.73;;;22.80;99.90;;;;;;5037773;28;20642;-34
2022/07/25 04:59:39;;;;;;;7.27;6.57;;;22.90;99.90;;;;;;5029551;28;20190;-34
2022/07/25 05:02:05;;;;;;;7.93;7.30;;;23.00;99.90;;;;;;5030855;28;20194;-34
2022/07/25 05:04:31;;;;;;;7.50;6.90;;;23.10;99.90;;;;;;5030642;28;20186;-34
2022/07/25 05:06:57;;;;;;;7.80;7.00;;;23.20;99.90;;;;;;5034654;28;20300;-34
2022/07/25 05:09:22;;;;;;;7.13;6.53;;;23.20;99.90;;;;;;5049379;28;20186;-34
2022/07/25 05:11:48;;;;;;;7.77;7.13;;;23.30;99.90;;;;;;5050324;28;20182;-34
2022/07/25 05:14:14;;;;;;;7.43;6.50;;;23.30;99.90;;;;;;5034149;28;20268;-34
2022/07/25 05:16:39;;;;;;;7.77;7.07;;;23.30;99.90;;;;;;5039665;28;20182;-34
2022/07/25 05:19:07;;;;;;;7.00;6.40;;;23.40;99.90;;;;;;5040555;28;20940;-35
2022/07/25 05:21:33;;;;;;;8.40;7.60;;;23.40;99.90;;;;;;5050115;28;20675;-34
2022/07/25 05:23:58;;;;;;;8.40;6.70;;;23.40;99.90;;;;;;5030698;28;20425;-34
2022/07/25 05:26:24;;;;;;;7.50;6.90;;;23.50;99.90;;;;;;5029258;28;20191;-34
2022/07/25 05:28:50;;;;;;;7.90;7.17;;;23.50;99.90;;;;;;5029973;28;20304;-34
2022/07/25 05:31:15;;;;;;;7.67;6.87;;;23.50;99.90;;;;;;5045485;28;20653;-34
2022/07/25 05:33:41;;;;;;;7.13;6.50;;;23.50;99.90;;;;;;5030514;28;20191;-34
2022/07/25 05:36:07;;;;;;;7.20;6.60;;;23.60;99.90;;;;;;5041184;28;20182;-34
2022/07/25 05:38:33;;;;;;;6.97;6.27;;;23.60;99.90;;;;;;5049503;28;20670;-34
2022/07/25 05:40:59;;;;;;;8.07;7.27;;;23.70;99.90;;;;;;5047214;28;20431;-34
2022/07/25 05:43:25;;;;;;;7.30;6.63;;;23.70;99.90;;;;;;5050173;28;20423;-34
2022/07/25 05:45:51;;;;;;;8.30;7.07;;;23.60;99.90;;;;;;5044020;28;20185;-34
2022/07/25 05:48:17;;;;;;;10.37;6.77;;;23.70;99.90;;;;;;5041843;28;20214;-34
2022/07/25 05:50:44;;;;;;;8.97;7.23;;;23.70;99.90;;;;;;5044891;28;20424;-34
2022/07/25 05:53:10;;;;;;;7.70;6.90;;;23.80;99.90;;;;;;5030292;28;20221;-34
2022/07/25 05:55:36;;;;;;;6.77;6.17;;;23.90;99.90;;;;;;5029882;28;20421;-34
2022/07/25 05:58:02;;;;;;;7.50;6.67;;;23.90;99.90;;;;;;5031675;28;20182;-35
2022/07/25 06:00:27;;;;;;;7.80;6.40;;;24.00;99.90;;;;;;5036680;28;20798;-34
2022/07/25 06:02:57;;;;;;;7.23;6.60;;;24.10;99.90;;;;;;5043676;28;20193;-34
2022/07/25 06:05:23;;;;;;;7.10;6.50;;;24.20;99.90;;;;;;5035340;28;20592;-34
2022/07/25 06:07:48;;;;;;;7.10;6.43;;;24.30;99.90;;;;;;5031365;28;20469;-34
2022/07/25 06:10:14;;;;;;;7.10;6.40;;;24.40;99.80;;;;;;5048260;28;20700;-34
2022/07/25 06:12:40;;;;;;;6.83;6.30;;;24.40;99.70;;;;;;5040760;28;20533;-34
2022/07/25 06:15:06;;;;;;;7.57;6.30;;;24.50;99.80;;;;;;5029743;28;20186;-34
2022/07/25 06:17:31;;;;;;;7.43;6.70;;;24.50;99.60;;;;;;5029336;28;20240;-34
2022/07/25 06:19:57;;;;;;;7.80;7.17;;;24.50;99.80;;;;;;5038321;28;20927;-34
2022/07/25 06:22:23;;;;;;;8.00;7.20;;;24.60;99.80;;;;;;5052526;28;20265;-34
2022/07/25 06:24:49;;;;;;;7.70;7.10;;;24.70;99.70;;;;;;5039785;28;20272;-34
2022/07/25 06:27:14;;;;;;;8.03;6.73;;;24.60;99.70;;;;;;5038203;28;20197;-34
2022/07/25 06:29:40;;;;;;;7.30;6.60;;;24.60;99.70;;;;;;5039156;28;20196;-34
2022/07/25 06:32:06;;;;;;;7.30;6.70;;;24.60;99.70;;;;;;5042813;28;20182;-34
2022/07/25 06:34:31;;;;;;;7.70;7.00;;;24.60;99.50;;;;;;5037816;28;20178;-34
2022/07/25 06:36:57;;;;;;;7.90;7.20;;;24.60;99.30;;;;;;5033730;28;20194;-34
2022/07/25 06:39:24;;;;;;;8.20;7.50;;;24.70;99.40;;;;;;5028371;28;20198;-34
2022/07/25 06:41:50;;;;;;;8.43;7.57;;;24.70;99.40;;;;;;5029374;28;20194;-34
2022/07/25 06:44:16;;;;;;;8.20;7.30;;;24.60;99.40;;;;;;5029170;28;20440;-34
2022/07/25 06:46:41;;;;;;;7.93;7.23;;;24.70;99.90;;;;;;5034357;28;20205;-34
2022/07/25 06:49:07;;;;;;;8.57;7.67;;;24.70;99.40;;;;;;5043305;28;20182;-34
2022/07/25 06:51:33;;;;;;;8.50;6.93;;;24.80;99.30;;;;;;5049572;28;20177;-34
2022/07/25 06:53:59;;;;;;;9.60;7.40;;;24.80;99.00;;;;;;5048173;28;20213;-34
2022/07/25 06:56:26;;;;;;;7.20;6.60;;;25.00;99.40;;;;;;5042574;28;20428;-34
2022/07/25 06:58:53;;;;;;;7.93;7.20;;;25.00;99.20;;;;;;5039957;28;20435;-34
2022/07/25 07:01:19;;;;;;;7.70;7.10;;;25.20;99.40;;;;;;5036739;28;20475;-34
2022/07/25 07:03:44;;;;;;;7.77;7.07;;;25.30;99.00;;;;;;5041946;28;20416;-34
2022/07/25 07:06:10;;;;;;;7.70;7.00;;;25.40;99.00;;;;;;5043594;28;20229;-34
2022/07/25 07:08:36;;;;;;;10.03;6.93;;;25.50;98.50;;;;;;5038205;28;20252;-34
2022/07/25 07:11:03;;;;;;;7.13;6.53;;;25.50;98.50;;;;;;5045703;28;20236;-34
2022/07/25 07:13:29;;;;;;;8.83;8.03;;;25.40;98.70;;;;;;5038470;28;20456;-34
2022/07/25 07:15:54;;;;;;;7.67;7.00;;;25.40;98.70;;;;;;5033049;28;20459;-34
2022/07/25 07:18:21;;;;;;;7.30;6.70;;;25.40;98.80;;;;;;5030526;28;20197;-34
2022/07/25 07:20:47;;;;;;;7.13;6.50;;;25.50;98.40;;;;;;5053170;28;20181;-34
2022/07/25 07:23:14;;;;;;;7.50;6.90;;;25.50;98.50;;;;;;5044689;28;20421;-34
2022/07/25 07:25:40;;;;;;;7.67;7.03;;;25.50;98.00;;;;;;5031367;28;20464;-34
2022/07/25 07:28:06;;;;;;;8.07;7.23;;;25.50;98.10;;;;;;5032270;28;20478;-34
2022/07/25 07:30:32;;;;;;;7.93;7.30;;;25.60;98.50;;;;;;5032679;28;20472;-34
2022/07/25 07:32:58;;;;;;;8.27;7.57;;;25.60;97.70;;;;;;5032803;28;20480;-34
2022/07/25 07:35:24;;;;;;;8.10;7.00;;;25.60;98.00;;;;;;5032668;28;20425;-34
2022/07/25 07:37:51;;;;;;;8.10;7.30;;;25.70;97.50;;;;;;5030762;28;20186;-34
2022/07/25 07:40:17;;;;;;;7.60;6.90;;;25.70;97.50;;;;;;5032431;28;20228;-34
2022/07/25 07:42:45;;;;;;;8.03;7.30;;;25.70;97.80;;;;;;5032577;28;20433;-34
2022/07/25 07:45:12;;;;;;;7.50;6.90;;;25.70;98.10;;;;;;5032623;28;20430;-34
2022/07/25 07:47:37;;;;;;;8.53;7.57;;;25.70;97.50;;;;;;5031901;28;20465;-34
2022/07/25 07:50:04;;;;;;;7.40;6.70;;;25.80;97.40;;;;;;5032483;28;20479;-34
2022/07/25 07:52:29;;;;;;;7.77;7.10;;;25.90;97.20;;;;;;5032518;28;20183;-34
2022/07/25 07:57:39;;;;;;;8.00;7.20;;;26.00;97.30;;;;;;5031727;28;20194;-34
2022/07/25 08:00:06;;;;;;;8.07;7.37;;;26.10;97.60;;;;;;5030881;28;20846;-34
2022/07/25 08:02:32;;;;;;;8.90;8.10;;;26.20;97.50;;;;;;5032273;28;20214;-34
2022/07/25 08:04:57;;;;;;;8.37;7.57;;;26.20;98.00;;;;;;5031574;28;20507;-34
2022/07/25 08:07:23;;;;;;;8.20;7.53;;;26.30;97.90;;;;;;5031128;28;20202;-34
2022/07/25 08:09:49;;;;;;;7.90;7.20;;;26.30;97.60;;;;;;5032239;28;20207;-34
2022/07/25 08:12:14;;;;;;;7.57;6.97;;;26.50;98.00;;;;;;5031998;28;20197;-34
2022/07/25 08:14:40;;;;;;;9.03;8.23;;;26.60;97.80;;;;;;5032284;28;20187;-34
2022/07/25 08:17:06;;;;;;;8.47;7.63;;;26.70;97.80;;;;;;5031244;28;20213;-35
2022/07/25 08:19:32;;;;;;;7.60;6.87;;;26.70;97.60;;;;;;5038237;28;20537;-34
2022/07/25 08:21:57;;;;;;;7.80;7.00;;;26.70;97.80;;;;;;5041624;28;20193;-34
2022/07/25 08:24:23;;;;;;;8.20;7.40;;;26.70;97.80;;;;;;5047615;28;20604;-35
2022/07/25 08:26:49;;;;;;;7.80;7.07;;;26.80;98.10;;;;;;5045975;28;20201;-34
2022/07/25 08:29:14;;;;;;;8.10;7.50;;;26.90;97.50;;;;;;5031816;28;20214;-34
2022/07/25 08:31:40;;;;;;;11.90;7.67;;;26.90;97.00;;;;;;5037402;28;20715;-34
2022/07/25 08:34:06;;;;;;;7.53;6.83;;;26.90;97.40;;;;;;5038821;28;20186;-35
2022/07/25 08:36:31;;;;;;;8.37;7.67;;;27.00;97.70;;;;;;5036843;28;20248;-34
2022/07/25 08:38:57;;;;;;;7.80;7.10;;;27.00;96.30;;;;;;5041258;28;20201;-35
2022/07/25 08:41:23;;;;;;;8.27;7.47;;;27.00;96.30;;;;;;5050501;28;20194;-34
2022/07/25 08:43:49;;;;;;;7.80;7.20;;;27.00;96.60;;;;;;5051016;28;20197;-35
2022/07/25 08:46:15;;;;;;;7.87;7.27;;;27.10;96.00;;;;;;5051090;28;20952;-34
2022/07/25 08:48:43;;;;;;;7.87;7.27;;;27.10;95.70;;;;;;5050308;28;20459;-34
2022/07/25 08:51:09;;;;;;;8.90;8.10;;;27.10;95.90;;;;;;5050676;28;20531;-34
2022/07/25 08:53:36;;;;;;;8.10;7.20;;;27.20;96.40;;;;;;5050871;28;20435;-34
2022/07/25 08:56:06;;;;;;;8.00;7.30;;;27.10;95.20;;;;;;5051001;28;20424;-34
2022/07/25 08:58:32;;;;;;;7.70;7.10;;;27.20;95.40;;;;;;5049381;28;20443;-35
2022/07/25 09:00:57;;;;;;;8.37;7.70;;;27.10;95.50;;;;;;5050969;28;20432;-34
2022/07/25 09:03:25;;;;;;;8.47;7.67;;;27.10;95.80;;;;;;5050842;28;20185;-35
2022/07/25 09:05:51;;;;;;;9.07;8.30;;;27.10;95.90;;;;;;5050588;28;20208;-35
2022/07/25 09:08:17;;;;;;;9.00;8.10;;;27.00;96.20;;;;;;5050131;28;20482;-34
2022/07/25 09:10:50;;;;;;;7.53;6.90;;;27.10;96.50;;;;;;5050820;28;20823;-35
2022/07/25 09:13:17;;;;;;;8.23;7.43;;;27.00;96.30;;;;;;5050664;28;20428;-35
2022/07/25 09:15:47;;;;;;;11.30;8.30;;;27.10;96.60;;;;;;5050381;28;20420;-35
2022/07/25 09:18:14;;;;;;;7.90;7.20;;;27.10;96.50;;;;;;5049492;28;20797;-35
2022/07/25 09:20:52;;;;;;;7.57;6.97;;;27.10;96.60;;;;;;5051707;28;20435;-35
2022/07/25 09:23:37;;;;;;;8.63;7.83;;;27.10;96.90;;;;;;5041317;28;20441;-35
2022/07/25 09:26:10;;;;;;;8.10;7.50;;;27.30;97.50;;;;;;5030763;28;20971;-34
2022/07/25 09:28:44;;;;;;;9.00;8.00;;;27.50;97.20;;;;;;5028145;28;20995;-35
2022/07/25 09:31:09;;;;;;;7.97;7.23;;;27.60;96.70;;;;;;5030649;28;20433;-35
2022/07/25 09:33:46;;;;;;;9.47;7.97;;;27.70;96.20;;;;;;5030305;28;20417;-34
2022/07/25 09:36:12;;;;;;;9.00;8.20;;;27.80;96.10;;;;;;5030516;28;20595;-34
2022/07/25 09:38:38;;;;;;;8.87;8.00;;;28.00;96.60;;;;;;5029767;28;20425;-35
2022/07/25 09:41:04;;;;;;;8.20;7.47;;;28.20;96.90;;;;;;5030255;28;20778;-34
2022/07/25 09:43:40;;;;;;;8.50;7.80;;;28.10;96.00;;;;;;5030140;28;20995;-35
2022/07/25 09:46:07;;;;;;;8.10;7.40;;;28.10;95.80;;;;;;5030428;28;20939;-35
2022/07/25 09:48:34;;;;;;;8.37;7.57;;;28.10;96.10;;;;;;5029638;28;21041;-34
2022/07/25 09:51:00;;;;;;;9.43;7.30;;;28.20;96.40;;;;;;5030297;28;20927;-34
2022/07/25 09:53:26;;;;;;;9.20;8.40;;;28.40;96.00;;;;;;5030341;28;20432;-35
2022/07/25 09:55:53;;;;;;;9.07;8.20;;;28.50;96.50;;;;;;5029792;28;20425;-35
2022/07/25 09:58:20;;;;;;;9.33;8.43;;;28.70;96.10;;;;;;5029681;28;20439;-35
2022/07/25 10:00:46;;;;;;;8.77;8.07;;;28.60;95.10;;;;;;5030089;28;20440;-35
2022/07/25 10:03:23;;;;;;;7.60;7.00;;;28.50;95.00;;;;;;5030341;28;20512;-35
2022/07/25 10:06:10;;;;;;;8.00;7.30;;;28.40;95.10;;;;;;5029977;28;20531;-35
2022/07/25 10:08:37;;;;;;;8.90;8.10;;;28.30;95.60;;;;;;5029491;28;20464;-34
2022/07/25 10:11:05;;;;;;;8.23;7.33;;;28.40;95.60;;;;;;5029890;28;20814;-34
2022/07/25 10:13:35;;;;;;;9.33;8.30;;;28.40;95.50;;;;;;5030004;28;20491;-35
2022/07/25 10:16:01;;;;;;;9.23;8.43;;;28.50;96.20;;;;;;5029733;28;20465;-34
2022/07/25 10:18:29;;;;;;;10.70;8.43;;;28.50;95.80;;;;;;5026536;28;20432;-35
2022/07/25 10:21:11;;;;;;;9.67;7.57;;;28.50;95.00;;;;;;5052325;28;20442;-34
2022/07/25 10:23:37;;;;;;;9.27;7.97;;;28.50;94.90;;;;;;5029737;28;20430;-35
2022/07/25 10:26:06;;;;;;;8.60;7.80;;;28.40;95.00;;;;;;5033626;28;20428;-34
2022/07/25 10:28:46;;;;;;;8.40;7.50;;;28.30;95.10;;;;;;5032355;28;20213;-35
2022/07/25 10:31:17;;;;;;;9.00;7.70;;;28.20;94.80;;;;;;5032619;28;20425;-35
2022/07/25 10:33:48;;;;;;;8.00;7.30;;;28.00;95.00;;;;;;5038965;28;20450;-35
2022/07/25 10:36:14;;;;;;;8.30;7.60;;;27.90;95.30;;;;;;5048119;28;20470;-34
2022/07/25 10:38:43;;;;;;;8.43;7.60;;;27.80;95.50;;;;;;5043586;28;21106;-34
2022/07/25 10:41:11;;;;;;;8.10;7.50;;;27.60;95.60;;;;;;5036281;28;20233;-35
2022/07/25 10:43:38;;;;;;;9.53;8.10;;;27.40;95.70;;;;;;5033565;28;20420;-35
2022/07/25 10:46:12;;;;;;;7.80;7.20;;;27.30;95.90;;;;;;5039253;28;20432;-34
2022/07/25 10:48:38;;;;;;;8.93;8.23;;;27.30;96.20;;;;;;5032476;28;20820;-35
2022/07/25 10:51:12;;;;;;;8.40;7.60;;;27.20;96.60;;;;;;5033490;28;20432;-34
2022/07/25 10:53:43;;;;;;;8.20;7.57;;;27.10;96.80;;;;;;5033436;28;20424;-35
2022/07/25 10:56:16;;;;;;;9.03;8.23;;;27.10;97.10;;;;;;5033243;28;20433;-35
2022/07/25 10:58:47;;;;;;;8.97;7.90;;;27.00;97.30;;;;;;5032822;28;20459;-34
2022/07/25 11:01:18;;;;;;;8.97;7.77;;;27.00;97.40;;;;;;5038832;28;20762;-35
2022/07/25 11:03:44;;;;;;;10.70;8.27;;;27.10;97.40;;;;;;5053258;28;20428;-35
2022/07/25 11:06:12;;;;;;;8.53;7.73;;;27.20;97.90;;;;;;5051832;28;20453;-35
2022/07/25 11:08:38;;;;;;;8.33;7.53;;;27.30;98.50;;;;;;5034547;28;20656;-35
2022/07/25 11:11:04;;;;;;;8.73;7.93;;;27.50;98.10;;;;;;5052165;28;20489;-34
2022/07/25 11:13:34;;;;;;;9.50;7.67;;;27.70;97.60;;;;;;5051690;28;20706;-35
2022/07/25 11:16:00;;;;;;;9.53;7.47;;;27.80;97.40;;;;;;5053029;28;20276;-35
2022/07/25 11:18:53;;;;;;;9.50;7.60;;;27.90;97.60;;;;;;5051016;28;20507;-35
2022/07/25 11:21:19;;;;;;;8.70;7.90;;;28.10;97.50;;;;;;5050505;28;20190;-35
2022/07/25 11:23:50;;;;;;;9.83;8.87;;;28.20;97.10;;;;;;5032877;28;20444;-34
2022/07/25 11:26:16;;;;;;;10.13;8.97;;;28.20;96.50;;;;;;5031678;28;20197;-34
2022/07/25 11:28:47;;;;;;;9.03;8.20;;;28.30;96.80;;;;;;5035688;28;20471;-35
2022/07/25 11:31:15;;;;;;;9.30;8.37;;;28.30;97.80;;;;;;5043618;28;20479;-35
2022/07/25 11:33:45;;;;;;;9.10;8.20;;;28.40;97.80;;;;;;5050018;28;20416;-35
2022/07/25 11:36:11;;;;;;;8.87;8.00;;;28.50;96.20;;;;;;5038424;28;20764;-35
2022/07/25 11:38:38;;;;;;;7.93;7.30;;;28.60;95.70;;;;;;5031953;28;20432;-35
2022/07/25 11:41:05;;;;;;;10.83;7.30;;;28.50;95.20;;;;;;5031842;28;20429;-35
2022/07/25 11:43:31;;;;;;;8.13;7.43;;;28.70;95.70;;;;;;5032614;28;20437;-35
2022/07/25 11:46:05;;;;;;;6.80;6.20;;;28.70;94.90;;;;;;5030449;28;20425;-34
2022/07/25 11:48:37;;;;;;;7.00;6.40;;;28.80;95.20;;;;;;5030382;28;20468;-34
2022/07/25 11:51:12;;;;;;;7.10;6.50;;;28.90;94.80;;;;;;5032441;28;20433;-34
2022/07/25 11:53:44;;;;;;;6.70;6.20;;;28.80;94.50;;;;;;5032493;28;20512;-35
2022/07/25 11:56:18;;;;;;;7.07;6.47;;;28.90;94.70;;;;;;5032296;28;20439;-34
2022/07/25 11:58:56;;;;;;;7.50;6.37;;;28.80;94.00;;;;;;5030330;28;20871;-35
2022/07/25 12:01:23;;;;;;;6.00;5.50;;;28.80;94.40;;;;;;5038974;28;20431;-35
2022/07/25 12:03:49;;;;;;;6.33;5.93;;;28.80;94.80;;;;;;5052213;28;20428;-35
2022/07/25 12:06:15;;;;;;;5.90;5.30;;;28.70;93.50;;;;;;5051887;28;20489;-35
2022/07/25 12:08:41;;;;;;;6.70;5.60;;;28.60;94.10;;;;;;5051376;28;20293;-35
2022/07/25 12:11:21;;;;;;;5.77;5.33;;;28.60;94.00;;;;;;5051711;28;20755;-34
2022/07/25 12:13:48;;;;;;;6.40;5.80;;;28.60;93.70;;;;;;5051868;28;20501;-34
2022/07/25 12:16:15;;;;;;;5.43;4.93;;;28.60;92.70;;;;;;5051888;28;20424;-35
2022/07/25 12:18:41;;;;;;;5.53;5.10;;;28.70;93.70;;;;;;5049485;28;20965;-35
2022/07/25 12:21:07;;;;;;;6.33;5.00;;;28.70;93.50;;;;;;5057880;28;20435;-35
2022/07/25 12:23:33;;;;;;;6.33;5.63;;;28.70;92.90;;;;;;5038015;28;20199;-34
2022/07/25 12:25:59;;;;;;;5.50;5.10;;;28.60;93.20;;;;;;5032129;28;20244;-35
2022/07/25 12:28:26;;;;;;;7.67;4.90;;;28.50;93.20;;;;;;5030933;28;20469;-34
2022/07/25 12:30:52;;;;;;;5.47;4.97;;;28.50;93.00;;;;;;5031808;28;20189;-35
2022/07/25 12:33:18;;;;;;;7.63;5.07;;;28.50;93.90;;;;;;5030210;28;20564;-34
2022/07/25 12:35:44;;;;;;;5.17;4.77;;;28.50;92.90;;;;;;5031655;28;20520;-35
2022/07/25 12:38:10;;;;;;;5.80;5.27;;;28.40;93.10;;;;;;5030745;28;20368;-35
2022/07/25 12:40:36;;;;;;;5.50;5.00;;;28.30;93.30;;;;;;5031454;28;20191;-35
2022/07/25 12:43:05;;;;;;;5.33;4.83;;;28.30;93.90;;;;;;5031653;28;20460;-34
2022/07/25 12:45:31;;;;;;;8.40;4.80;;;28.30;94.10;;;;;;5031321;28;20488;-34